Time;durP1;ratioP1;P1;durP2;ratioP2;P2;SDS_P1;SDS_P2;PMS_P1;PMS_P2;Temp;Humidity;BMP_temperature;BMP_pressure;BME280_temperature;BME280_humidity;BME280_pressure;Samples;Min_cycle;Max_cycle;Signal;HPM_P1;HPM_P2
2020/12/22 00:02:15;;;;;;;19.80;9.73;;;;;;;3.92;74.83;94356.88;4975188;28;20052;-38
2020/12/22 00:04:40;;;;;;;19.70;11.07;;;;;;;3.84;75.01;94367.50;4975384;28;20105;-39
2020/12/22 00:07:06;;;;;;;19.75;9.98;;;;;;;3.80;75.38;94360.75;4975174;28;20118;-39
2020/12/22 00:09:31;;;;;;;22.83;14.25;;;;;;;3.80;75.72;94369.69;4974746;28;20671;-38
2020/12/22 00:11:57;;;;;;;29.65;14.38;;;;;;;3.66;76.51;94372.53;4974804;28;20506;-41
2020/12/22 00:14:23;;;;;;;30.38;16.85;;;;;;;3.57;76.57;94369.97;4975068;28;20495;-42
2020/12/22 00:16:48;;;;;;;24.08;14.52;;;;;;;3.65;76.84;94381.94;4975267;28;20035;-42
2020/12/22 00:19:13;;;;;;;33.60;16.73;;;;;;;3.70;76.92;94382.00;4974062;28;20027;-45
2020/12/22 00:21:39;;;;;;;31.55;14.02;;;;;;;3.69;76.72;94383.22;4974963;28;20385;-41
2020/12/22 00:24:04;;;;;;;28.60;15.48;;;;;;;3.77;76.29;94391.75;4974873;28;20058;-40
2020/12/22 00:26:30;;;;;;;41.97;18.42;;;;;;;3.80;76.25;94379.84;4974847;28;20093;-43
2020/12/22 00:28:56;;;;;;;32.25;15.10;;;;;;;3.85;76.14;94385.38;4975032;28;20031;-41
2020/12/22 00:31:21;;;;;;;35.80;15.43;;;;;;;3.85;76.10;94381.91;4974790;28;20027;-42
2020/12/22 00:33:47;;;;;;;30.27;15.55;;;;;;;3.87;75.78;94390.38;4975025;28;20420;-41
2020/12/22 00:36:13;;;;;;;33.03;16.95;;;;;;;3.80;76.25;94388.06;4974743;28;20046;-42
2020/12/22 00:38:38;;;;;;;31.55;18.65;;;;;;;3.74;76.50;94387.25;4974571;28;20463;-44
2020/12/22 00:41:04;;;;;;;37.20;16.50;;;;;;;3.77;76.40;94383.53;4974604;28;20038;-41
2020/12/22 00:43:29;;;;;;;52.00;20.95;;;;;;;3.62;76.77;94389.13;4973429;28;20027;-40
2020/12/22 00:45:55;;;;;;;36.05;16.63;;;;;;;3.70;76.58;94390.19;4974559;28;20042;-42
2020/12/22 00:48:20;;;;;;;32.90;17.80;;;;;;;3.74;76.11;94387.25;4974650;28;20519;-42
2020/12/22 00:50:46;;;;;;;31.92;16.05;;;;;;;3.75;76.31;94383.28;4974545;28;20038;-45
2020/12/22 00:53:11;;;;;;;48.13;21.83;;;;;;;3.83;76.24;94387.09;4974409;28;20056;-42
2020/12/22 00:55:36;;;;;;;39.75;18.88;;;;;;;3.71;76.66;94374.56;4974297;28;20562;-42
2020/12/22 00:58:02;;;;;;;29.33;15.68;;;;;;;3.53;77.25;94377.63;4974464;28;20470;-41
2020/12/22 01:00:27;;;;;;;44.42;18.83;;;;;;;3.44;77.82;94383.22;4974008;28;20476;-41
2020/12/22 01:02:53;;;;;;;36.88;16.50;;;;;;;3.55;77.46;94377.88;4974207;28;20093;-41
2020/12/22 01:05:18;;;;;;;28.33;15.35;;;;;;;3.49;77.55;94377.06;4974374;28;20030;-39
2020/12/22 01:07:43;;;;;;;32.15;15.85;;;;;;;3.42;78.03;94380.94;4974111;28;20030;-39
2020/12/22 01:10:09;;;;;;;26.38;14.65;;;;;;;3.49;77.58;94377.06;4974131;28;20034;-39
2020/12/22 01:12:34;;;;;;;31.17;16.10;;;;;;;3.58;77.95;94372.19;4973960;28;20385;-39
2020/12/22 01:15:00;;;;;;;31.80;14.98;;;;;;;3.57;78.03;94380.88;4973883;28;20042;-39
2020/12/22 01:17:25;;;;;;;36.47;16.67;;;;;;;3.48;78.04;94379.06;4974239;28;20034;-39
2020/12/22 01:19:53;;;;;;;25.70;13.80;;;;;;;3.48;78.42;94386.47;4973550;28;20034;-40
2020/12/22 01:22:18;;;;;;;31.45;15.38;;;;;;;3.55;78.65;94378.59;4973727;28;20511;-39
2020/12/22 01:24:44;;;;;;;40.47;17.70;;;;;;;3.53;78.76;94381.06;4973802;28;20031;-40
2020/12/22 01:27:09;;;;;;;46.03;20.23;;;;;;;3.36;78.68;94376.66;4973689;28;20038;-39
2020/12/22 01:29:35;;;;;;;42.15;20.52;;;;;;;3.41;78.65;94381.44;4973927;28;20026;-39
2020/12/22 01:32:00;;;;;;;32.92;18.30;;;;;;;3.44;79.01;94383.22;4956394;28;20476;-38
2020/12/22 01:34:25;;;;;;;40.47;17.73;;;;;;;3.42;78.70;94383.69;4973537;28;20031;-38
2020/12/22 01:36:51;;;;;;;33.50;16.48;;;;;;;3.55;78.56;94388.81;4973572;28;20109;-39
2020/12/22 01:39:16;;;;;;;38.55;15.50;;;;;;;3.44;78.46;94383.22;4973532;28;20415;-39
2020/12/22 01:41:42;;;;;;;40.50;17.08;;;;;;;3.44;79.06;94389.44;4973516;28;20030;-39
2020/12/22 01:44:10;;;;;;;41.38;17.30;;;;;;;3.60;78.69;94379.91;4973365;28;20063;-39
2020/12/22 01:46:40;;;;;;;37.47;14.90;;;;;;;3.71;77.30;94377.28;4973302;28;20062;-39
2020/12/22 01:49:25;;;;;;;33.63;15.63;;;;;;;3.75;77.32;94378.56;4973521;28;20031;-39
2020/12/22 01:51:53;;;;;;;37.83;14.57;;;;;;;3.79;77.39;94372.88;4973399;28;20110;-39
2020/12/22 01:54:19;;;;;;;30.37;13.97;;;;;;;3.73;77.63;94374.81;4973144;28;20035;-39
2020/12/22 01:56:45;;;;;;;29.73;14.77;;;;;;;3.77;77.18;94367.91;4973277;28;20033;-39
2020/12/22 01:59:12;;;;;;;35.20;17.23;;;;;;;3.68;77.33;94370.81;4973176;28;20484;-40
2020/12/22 02:01:37;;;;;;;35.72;14.60;;;;;;;3.41;78.20;94356.88;4973261;28;20033;-39
2020/12/22 02:04:05;;;;;;;36.28;16.02;;;;;;;3.36;78.79;94369.22;4973055;28;20026;-39
2020/12/22 02:06:31;;;;;;;43.10;16.73;;;;;;;3.47;78.33;94363.13;4973346;28;20031;-40
2020/12/22 02:08:57;;;;;;;41.83;18.40;;;;;;;3.20;79.23;94375.25;4973115;28;20035;-39
2020/12/22 02:11:29;;;;;;;34.22;14.13;;;;;;;3.38;79.18;94369.50;4973348;28;20039;-44
2020/12/22 02:13:56;;;;;;;36.53;15.23;;;;;;;3.40;78.78;94367.03;4972922;28;20053;-40
2020/12/22 02:16:21;;;;;;;36.17;15.95;;;;;;;3.49;78.68;94361.44;4972860;28;20522;-42
2020/12/22 02:18:48;;;;;;;25.15;12.73;;;;;;;3.47;78.12;94361.16;4972802;28;20117;-42
2020/12/22 02:21:13;;;;;;;31.15;13.50;;;;;;;3.21;79.58;94357.66;4955752;28;20053;-42
2020/12/22 02:23:39;;;;;;;31.70;15.05;;;;;;;3.22;79.75;94355.66;4972884;28;20480;-41
2020/12/22 02:26:04;;;;;;;33.55;16.17;;;;;;;3.13;80.19;94358.53;4964786;28;20026;-37
2020/12/22 02:28:30;;;;;;;32.28;14.98;;;;;;;3.19;80.06;94351.16;4972833;28;20030;-38
2020/12/22 02:30:55;;;;;;;40.78;15.85;;;;;;;3.33;79.68;94351.09;4972066;28;20031;-37
2020/12/22 02:33:21;;;;;;;36.10;14.82;;;;;;;3.48;78.98;94351.00;4971921;28;20031;-37
2020/12/22 02:35:46;;;;;;;32.28;15.35;;;;;;;3.45;78.46;94347.25;4972741;28;20038;-37
2020/12/22 02:38:11;;;;;;;60.92;22.33;;;;;;;3.54;79.11;94349.81;4972535;28;20484;-37
2020/12/22 02:40:37;;;;;;;39.30;17.10;;;;;;;3.58;78.78;94342.16;4972672;28;20507;-38
2020/12/22 02:43:12;;;;;;;35.55;17.38;;;;;;;3.47;79.19;94346.75;4972135;28;20030;-37
2020/12/22 02:45:42;;;;;;;34.35;15.85;;;;;;;3.42;79.60;94340.00;4972353;28;20515;-38
2020/12/22 02:48:09;;;;;;;28.23;13.18;;;;;;;3.55;78.87;94345.84;4972668;28;20046;-37
2020/12/22 02:50:35;;;;;;;29.13;14.50;;;;;;;3.49;79.05;94352.47;4972697;28;20031;-38
2020/12/22 02:53:00;;;;;;;30.73;13.70;;;;;;;3.53;79.37;94342.84;4972448;28;20087;-38
2020/12/22 02:55:25;;;;;;;30.50;14.30;;;;;;;3.51;79.22;94350.78;4972607;28;20035;-37
2020/12/22 02:57:51;;;;;;;33.17;14.88;;;;;;;3.64;79.02;94342.97;4972446;28;20033;-38
2020/12/22 03:00:16;;;;;;;30.65;13.98;;;;;;;3.67;78.79;94336.53;4972169;28;20411;-37
2020/12/22 03:02:42;;;;;;;24.48;13.40;;;;;;;3.73;78.61;94336.59;4972419;28;20022;-38
2020/12/22 03:05:07;;;;;;;28.67;12.63;;;;;;;3.69;78.10;94336.81;4972706;28;20019;-38
2020/12/22 03:07:33;;;;;;;23.48;12.20;;;;;;;3.81;78.11;94340.41;4972364;28;20403;-38
2020/12/22 03:09:58;;;;;;;23.35;12.07;;;;;;;3.83;77.50;94341.41;4972491;28;20393;-38
2020/12/22 03:12:23;;;;;;;25.92;13.43;;;;;;;3.85;77.16;94340.94;4972298;28;20500;-39
2020/12/22 03:14:49;;;;;;;25.33;12.25;;;;;;;3.47;77.74;94316.72;4972413;28;20041;-38
2020/12/22 03:17:14;;;;;;;23.92;11.98;;;;;;;3.55;78.46;94336.94;4972309;28;20023;-38
2020/12/22 03:19:40;;;;;;;23.65;11.98;;;;;;;3.66;77.92;94337.03;4972109;28;20459;-39
2020/12/22 03:22:06;;;;;;;20.83;10.73;;;;;;;3.66;78.28;94342.50;4972117;28;20445;-40
2020/12/22 03:24:32;;;;;;;19.88;9.23;;;;;;;3.45;78.35;94335.56;4972043;28;20035;-38
2020/12/22 03:26:57;;;;;;;20.77;9.63;;;;;;;3.55;77.85;94337.66;4971842;28;20035;-39
2020/12/22 03:29:22;;;;;;;59.38;21.15;;;;;;;3.63;77.92;94340.72;4971929;28;20015;-39
2020/12/22 03:31:48;;;;;;;40.20;16.98;;;;;;;3.63;77.64;94341.47;4972112;28;20499;-39
2020/12/22 03:34:13;;;;;;;22.35;12.88;;;;;;;3.66;77.30;94337.03;4972066;28;20037;-40
2020/12/22 03:36:39;;;;;;;16.75;8.15;;;;;;;3.62;77.92;94331.78;4972146;28;20023;-39
2020/12/22 03:39:04;;;;;;;14.77;8.80;;;;;;;3.58;77.17;94325.78;4972122;28;20066;-39
2020/12/22 03:41:30;;;;;;;40.38;17.38;;;;;;;3.41;78.09;94337.75;4971946;28;20026;-40
2020/12/22 03:43:56;;;;;;;16.65;9.02;;;;;;;3.47;77.81;94333.84;4971985;28;20034;-41
2020/12/22 03:46:22;;;;;;;76.88;29.33;;;;;;;3.42;77.82;94328.34;4972002;28;20047;-39
2020/12/22 03:48:48;;;;;;;29.75;14.55;;;;;;;3.51;77.66;94326.19;4972100;28;20175;-40
2020/12/22 03:51:13;;;;;;;21.63;10.30;;;;;;;3.62;76.67;94317.38;4971825;28;20408;-40
2020/12/22 03:53:39;;;;;;;19.95;10.15;;;;;;;3.47;76.81;94319.44;4971952;28;20031;-39
2020/12/22 03:56:06;;;;;;;23.80;12.75;;;;;;;3.53;77.15;94312.09;4974881;28;20035;-39
2020/12/22 03:58:31;;;;;;;20.42;10.10;;;;;;;3.58;76.96;94323.06;4975490;28;20034;-38
2020/12/22 04:00:57;;;;;;;15.70;9.50;;;;;;;3.59;77.15;94326.53;4975027;28;20050;-37
2020/12/22 04:03:22;;;;;;;43.65;17.52;;;;;;;3.60;77.54;94320.59;4975272;28;20031;-38
2020/12/22 04:05:48;;;;;;;46.95;16.60;;;;;;;3.60;77.42;94320.59;4975301;28;20032;-39
2020/12/22 04:08:13;;;;;;;25.48;11.48;;;;;;;3.56;76.92;94324.75;4975285;28;20031;-38
2020/12/22 04:10:38;;;;;;;18.88;8.80;;;;;;;3.65;76.51;94327.34;4975083;28;20567;-39
2020/12/22 04:13:04;;;;;;;17.50;7.38;;;;;;;3.66;76.81;94317.91;4975068;28;20039;-38
2020/12/22 04:15:29;;;;;;;43.55;16.45;;;;;;;3.74;76.58;94318.97;4975110;28;20018;-39
2020/12/22 04:17:55;;;;;;;24.92;10.82;;;;;;;3.54;76.68;94321.75;4975050;28;20428;-38
2020/12/22 04:20:20;;;;;;;20.13;11.55;;;;;;;3.57;76.43;94324.28;4974944;28;20480;-38
2020/12/22 04:22:45;;;;;;;29.92;14.68;;;;;;;3.63;75.66;94313.41;4974989;28;20045;-39
2020/12/22 04:25:11;;;;;;;16.70;10.48;;;;;;;3.64;75.62;94314.91;4974993;28;20030;-38
2020/12/22 04:27:36;;;;;;;14.35;6.88;;;;;;;3.71;75.08;94319.94;4974920;28;20042;-38
2020/12/22 04:30:03;;;;;;;12.20;5.78;;;;;;;3.73;75.20;94320.19;4974652;28;20475;-38
2020/12/22 04:32:29;;;;;;;9.30;5.28;;;;;;;3.73;75.28;94317.47;4974690;28;20393;-39
2020/12/22 04:34:55;;;;;;;8.93;5.90;;;;;;;3.78;75.14;94322.25;4974813;28;20037;-38
2020/12/22 04:37:20;;;;;;;11.00;6.13;;;;;;;3.82;74.60;94325.50;4974945;28;20420;-38
2020/12/22 04:39:46;;;;;;;10.88;5.55;;;;;;;3.80;74.58;94333.44;4974606;28;20038;-39
2020/12/22 04:42:13;;;;;;;9.50;5.45;;;;;;;3.85;74.92;94330.00;4974709;28;20030;-39
2020/12/22 04:44:39;;;;;;;12.70;6.45;;;;;;;3.42;75.88;94336.53;4974502;28;20479;-38
2020/12/22 04:47:06;;;;;;;10.55;7.30;;;;;;;3.57;75.63;94334.47;4974340;28;20133;-40
2020/12/22 04:49:35;;;;;;;11.50;6.60;;;;;;;3.52;75.93;94338.63;4957253;28;20046;-39
2020/12/22 04:52:02;;;;;;;15.93;8.25;;;;;;;3.09;77.57;94334.19;4974379;28;20459;-38
2020/12/22 04:54:27;;;;;;;22.27;10.98;;;;;;;3.07;77.70;94342.84;4954388;28;20117;-41
2020/12/22 04:56:53;;;;;;;22.08;10.20;;;;;;;3.24;77.67;94345.03;4955013;29;20102;-40
2020/12/22 04:59:18;;;;;;;13.95;7.80;;;;;;;3.36;77.50;94350.13;4954965;29;20039;-39
2020/12/22 05:01:44;;;;;;;13.80;7.75;;;;;;;3.37;76.94;94350.88;4968239;28;20090;-39
2020/12/22 05:04:11;;;;;;;15.20;6.25;;;;;;;3.49;77.18;94355.22;4974093;28;20039;-39
2020/12/22 05:06:37;;;;;;;13.07;7.03;;;;;;;3.53;76.36;94347.59;4973643;28;20031;-38
2020/12/22 05:09:03;;;;;;;11.13;6.53;;;;;;;3.41;76.41;94349.44;4974315;28;20022;-39
2020/12/22 05:11:29;;;;;;;12.73;7.03;;;;;;;3.30;77.04;94343.09;4974162;28;20113;-38
2020/12/22 05:13:56;;;;;;;12.35;6.75;;;;;;;3.21;78.06;94344.00;4956722;28;20027;-43
2020/12/22 05:16:28;;;;;;;10.65;6.75;;;;;;;3.00;78.23;94342.53;4974085;28;20033;-40
2020/12/22 05:18:54;;;;;;;11.63;7.15;;;;;;;3.16;78.31;94347.44;4973950;28;20102;-44
2020/12/22 05:21:20;;;;;;;10.75;6.75;;;;;;;3.25;77.74;94343.81;4973797;28;20023;-42
2020/12/22 05:23:50;;;;;;;10.07;5.82;;;;;;;3.36;77.71;94344.66;4973896;28;20035;-43
2020/12/22 05:26:22;;;;;;;16.90;8.73;;;;;;;3.32;78.49;94341.41;4973762;28;20070;-44
2020/12/22 05:28:48;;;;;;;22.13;10.35;;;;;;;3.31;77.81;94337.19;4973803;28;20042;-45
2020/12/22 05:31:15;;;;;;;17.10;8.98;;;;;;;3.40;77.88;94345.19;4973763;28;20078;-47
2020/12/22 05:33:45;;;;;;;14.35;7.88;;;;;;;3.43;77.48;94349.69;4973763;28;20034;-42
2020/12/22 05:36:11;;;;;;;21.00;11.77;;;;;;;3.59;77.09;94345.66;4973560;28;20097;-43
2020/12/22 05:38:38;;;;;;;21.45;11.45;;;;;;;3.57;76.27;94342.66;4973494;28;20133;-44
2020/12/22 05:41:05;;;;;;;16.77;9.43;;;;;;;3.49;76.57;94350.50;4973425;28;20397;-43
2020/12/22 05:43:42;;;;;;;19.38;8.02;;;;;;;3.58;76.76;94353.09;4973663;28;20030;-46
2020/12/22 05:46:10;;;;;;;12.52;6.50;;;;;;;3.66;76.61;94347.97;4973248;28;20051;-47
2020/12/22 05:48:36;;;;;;;19.60;10.25;;;;;;;3.63;76.51;94349.66;4973510;28;20031;-47
2020/12/22 05:51:06;;;;;;;15.43;9.07;;;;;;;3.73;75.93;94345.53;4973420;28;20031;-45
2020/12/22 05:53:32;;;;;;;18.08;9.70;;;;;;;3.51;77.07;94352.78;4973397;28;20401;-48
2020/12/22 05:56:16;;;;;;;17.98;10.52;;;;;;;3.50;77.48;94360.22;4973403;28;20034;-43
2020/12/22 05:58:41;;;;;;;43.95;22.02;;;;;;;3.43;77.98;94359.88;4973226;28;20030;-43
2020/12/22 06:01:11;;;;;;;29.15;15.73;;;;;;;3.56;76.91;94357.53;4973095;28;20038;-44
2020/12/22 06:03:37;;;;;;;30.20;16.00;;;;;;;3.71;76.25;94355.44;4971706;28;20504;-45
2020/12/22 06:06:03;;;;;;;31.13;15.70;;;;;;;3.78;76.14;94349.56;4973076;28;20139;-40
2020/12/22 06:08:28;;;;;;;47.45;23.92;;;;;;;3.71;76.24;94352.72;4973061;28;20478;-44
2020/12/22 06:10:54;;;;;;;31.23;17.20;;;;;;;3.59;77.73;94348.38;4972992;28;20030;-40
2020/12/22 06:13:21;;;;;;;36.30;19.35;;;;;;;3.58;77.13;94349.59;4955745;28;20572;-40
2020/12/22 06:15:46;;;;;;;56.67;28.52;;;;;;;3.59;77.49;94351.09;4972870;28;20038;-38
2020/12/22 06:18:12;;;;;;;55.83;28.10;;;;;;;3.74;76.58;94349.03;4972096;28;20030;-38
2020/12/22 06:20:38;;;;;;;61.92;34.05;;;;;;;3.78;76.57;94353.03;4955245;28;20034;-39
2020/12/22 06:23:07;;;;;;;58.38;29.10;;;;;;;3.94;76.19;94346.22;4972746;28;20031;-38
2020/12/22 06:25:36;;;;;;;40.38;22.60;;;;;;;3.86;75.90;94331.50;4972820;28;20030;-39
2020/12/22 06:28:02;;;;;;;43.50;22.35;;;;;;;3.95;75.37;94349.69;4972910;28;20026;-39
2020/12/22 06:30:32;;;;;;;31.60;15.98;;;;;;;3.99;75.65;94348.25;4972692;28;20023;-39
2020/12/22 06:33:18;;;;;;;25.13;11.05;;;;;;;3.93;75.01;94352.91;4972801;28;20496;-39
2020/12/22 06:36:07;;;;;;;18.40;11.48;;;;;;;4.00;74.84;94352.47;4972707;28;20058;-39
2020/12/22 06:38:42;;;;;;;29.27;13.35;;;;;;;4.13;73.79;94355.56;4972796;28;20507;-40
2020/12/22 06:41:07;;;;;;;25.73;12.00;;;;;;;4.14;73.95;94356.31;4972522;28;20039;-39
2020/12/22 06:43:43;;;;;;;25.98;11.38;;;;;;;4.02;74.12;94349.25;4972611;28;20027;-39
2020/12/22 06:46:42;;;;;;;20.00;11.00;;;;;;;4.06;74.18;94345.06;4972454;28;20487;-40
2020/12/22 06:49:08;;;;;;;28.42;12.45;;;;;;;4.21;74.25;94342.19;4920583;28;20073;-39
2020/12/22 06:51:36;;;;;;;38.35;17.33;;;;;;;4.32;74.21;94340.31;4972493;28;20065;-39
2020/12/22 06:54:25;;;;;;;26.45;14.70;;;;;;;4.31;73.69;94335.34;4972543;28;20109;-41
2020/12/22 06:56:50;;;;;;;32.13;19.88;;;;;;;4.07;72.86;94348.56;4972280;28;20026;-40
2020/12/22 06:59:40;;;;;;;23.00;12.18;;;;;;;3.86;74.76;94350.59;4972331;28;20053;-40
2020/12/22 07:02:29;;;;;;;29.25;14.23;;;;;;;4.01;74.72;94353.97;4972487;28;20086;-41
2020/12/22 07:04:54;;;;;;;20.52;11.02;;;;;;;4.08;74.74;94356.25;4972623;28;20473;-40
2020/12/22 07:07:21;;;;;;;22.52;11.05;;;;;;;4.04;74.39;94352.25;4955239;28;20038;-41
2020/12/22 07:09:46;;;;;;;19.80;10.50;;;;;;;4.13;73.78;94352.09;4972177;28;20027;-40
2020/12/22 07:12:15;;;;;;;22.95;12.40;;;;;;;4.05;74.06;94353.75;4972413;28;20031;-41
2020/12/22 07:14:45;;;;;;;21.57;11.03;;;;;;;3.85;74.20;94338.94;4972110;28;20023;-40
2020/12/22 07:17:13;;;;;;;20.42;10.60;;;;;;;4.01;74.00;94343.03;4954929;28;20274;-38
2020/12/22 07:19:43;;;;;;;21.70;10.27;;;;;;;4.14;73.94;94345.38;4954619;28;20098;-41
2020/12/22 07:22:08;;;;;;;24.95;13.13;;;;;;;4.27;73.91;94349.19;4969256;28;20097;-40
2020/12/22 07:24:36;;;;;;;20.73;10.32;;;;;;;4.42;72.95;94338.88;4971307;28;20035;-40
2020/12/22 07:27:02;;;;;;;15.77;8.52;;;;;;;4.36;72.89;94332.63;4971850;28;20062;-40
2020/12/22 07:29:28;;;;;;;22.33;13.13;;;;;;;4.16;73.31;94338.19;4982046;28;20022;-39
2020/12/22 07:31:53;;;;;;;19.55;9.80;;;;;;;4.23;72.94;94345.94;4983602;28;20049;-39
2020/12/22 07:34:19;;;;;;;16.48;9.57;;;;;;;4.04;73.04;94342.06;4973397;28;20049;-43
2020/12/22 07:36:46;;;;;;;16.80;9.63;;;;;;;4.10;73.63;94339.38;4978555;28;20027;-41
2020/12/22 07:39:21;;;;;;;23.55;9.32;;;;;;;4.19;74.16;94345.44;4979443;28;20029;-43
2020/12/22 07:41:46;;;;;;;16.60;9.70;;;;;;;4.22;73.40;94344.44;4985838;28;20423;-40
2020/12/22 07:44:17;;;;;;;18.27;9.63;;;;;;;4.21;73.33;94345.69;4986671;28;20026;-39
2020/12/22 07:46:44;;;;;;;22.17;8.70;;;;;;;4.24;73.35;94350.19;4986452;28;20057;-41
2020/12/22 07:49:11;;;;;;;17.10;8.00;;;;;;;4.30;72.92;94336.56;4981210;28;20026;-41
2020/12/22 07:51:40;;;;;;;18.63;9.55;;;;;;;4.51;72.95;94335.19;4986385;28;20569;-40
2020/12/22 07:54:06;;;;;;;22.75;9.23;;;;;;;4.66;72.59;94333.03;4980526;28;20267;-45
2020/12/22 07:56:33;;;;;;;21.75;10.82;;;;;;;4.78;72.58;94331.88;4956261;29;20481;-41
2020/12/22 07:59:05;;;;;;;15.93;8.90;;;;;;;4.74;71.67;94336.84;4969396;28;20027;-43
2020/12/22 08:01:32;;;;;;;24.20;9.23;;;;;;;4.45;72.32;94323.47;4973265;28;20041;-40
2020/12/22 08:03:58;;;;;;;16.73;9.13;;;;;;;4.35;73.16;94330.38;4977104;28;20419;-39
2020/12/22 08:06:24;;;;;;;18.00;8.18;;;;;;;4.19;73.19;94328.28;4972914;28;20492;-38
2020/12/22 08:08:59;;;;;;;24.70;10.32;;;;;;;4.44;73.16;94322.72;4972570;28;20026;-38
2020/12/22 08:11:25;;;;;;;33.70;14.98;;;;;;;4.58;72.82;94324.56;4972478;28;20110;-39
2020/12/22 08:13:51;;;;;;;19.67;10.23;;;;;;;4.76;72.21;94330.88;4974970;28;20094;-39
2020/12/22 08:16:17;;;;;;;19.08;11.27;;;;;;;4.84;72.08;94332.66;4974845;28;20479;-39
2020/12/22 08:18:42;;;;;;;18.90;10.35;;;;;;;4.94;72.13;94333.94;4957796;28;20022;-40
2020/12/22 08:21:10;;;;;;;21.17;10.65;;;;;;;4.99;71.66;94335.19;4956760;28;20026;-39
2020/12/22 08:23:37;;;;;;;25.40;11.95;;;;;;;5.10;70.78;94338.00;4955272;28;20101;-40
2020/12/22 08:26:04;;;;;;;24.80;13.80;;;;;;;5.21;71.41;94325.09;4963863;28;20027;-42
2020/12/22 08:28:29;;;;;;;55.05;20.55;;;;;;;5.16;71.38;94334.03;4957450;28;20045;-40
2020/12/22 08:30:55;;;;;;;23.17;12.23;;;;;;;5.25;71.04;94333.06;4967049;28;20024;-40
2020/12/22 08:33:22;;;;;;;22.30;12.27;;;;;;;5.32;70.33;94341.56;4958752;28;20023;-41
2020/12/22 08:35:49;;;;;;;23.30;12.38;;;;;;;5.44;70.49;94345.06;4955134;29;20043;-38
2020/12/22 08:38:25;;;;;;;30.98;13.60;;;;;;;5.31;70.65;94331.09;4957472;28;20416;-39
2020/12/22 08:40:52;;;;;;;23.88;11.77;;;;;;;5.35;70.56;94332.34;4954647;28;20401;-39
2020/12/22 08:43:20;;;;;;;20.73;10.15;;;;;;;5.29;70.04;94325.38;4954589;29;20092;-42
2020/12/22 08:45:45;;;;;;;26.52;13.15;;;;;;;5.38;70.41;94325.16;4935519;29;20054;-41
2020/12/22 08:48:10;;;;;;;35.63;15.68;;;;;;;5.50;69.77;94329.41;4943796;29;20023;-40
2020/12/22 08:50:49;;;;;;;23.63;11.02;;;;;;;5.34;70.56;94328.13;4950390;29;20039;-40
2020/12/22 08:53:15;;;;;;;;;;;;;;;5.53;69.58;94322.94;4947713;29;20070;-41
2020/12/22 08:55:41;;;;;;;22.42;10.63;;;;;;;5.53;69.28;94317.47;4942634;29;19910;-43
2020/12/22 08:58:06;;;;;;;19.13;11.70;;;;;;;5.64;69.52;94319.47;4944273;29;20031;-40
2020/12/22 09:00:31;;;;;;;30.25;12.32;;;;;;;5.69;69.25;94311.28;4943116;29;20086;-43
2020/12/22 09:03:00;;;;;;;23.33;12.52;;;;;;;5.91;68.40;94314.03;4946739;29;20028;-41
2020/12/22 09:05:28;;;;;;;19.55;9.35;;;;;;;5.87;68.25;94310.06;4948575;29;20064;-40
2020/12/22 09:07:58;;;;;;;14.98;8.35;;;;;;;5.69;68.13;94302.31;4948342;29;20412;-40
2020/12/22 09:10:23;;;;;;;18.38;8.50;;;;;;;5.57;68.82;94307.00;4948433;29;20505;-41
2020/12/22 09:12:49;;;;;;;11.80;7.05;;;;;;;5.61;68.20;94302.03;4935526;29;20026;-40
2020/12/22 09:15:14;;;;;;;14.13;7.75;;;;;;;5.53;68.59;94298.28;4947735;29;20023;-40
2020/12/22 09:17:40;;;;;;;17.65;8.05;;;;;;;5.58;68.60;94297.56;4946093;29;20102;-40
2020/12/22 09:20:06;;;;;;;20.15;9.23;;;;;;;5.61;68.96;94290.34;4946134;29;20106;-40
2020/12/22 09:22:33;;;;;;;16.10;6.65;;;;;;;5.73;68.16;94286.38;4945368;29;20114;-40
2020/12/22 09:25:04;;;;;;;13.65;7.15;;;;;;;5.68;67.65;94287.84;4953768;29;20043;-40
2020/12/22 09:27:35;;;;;;;18.15;7.00;;;;;;;5.48;68.39;94274.38;4963442;28;20389;-40
2020/12/22 09:30:11;;;;;;;14.43;7.10;;;;;;;5.60;68.37;94286.84;4971143;28;20485;-40
2020/12/22 09:32:37;;;;;;;14.63;6.55;;;;;;;5.50;68.58;94287.59;4958947;28;20049;-39
2020/12/22 09:35:03;;;;;;;15.88;7.22;;;;;;;5.39;69.08;94277.38;4952673;29;20432;-41
2020/12/22 09:37:28;;;;;;;13.35;7.05;;;;;;;5.46;68.96;94278.88;4956414;28;20038;-40
2020/12/22 09:39:54;;;;;;;13.32;7.75;;;;;;;5.51;68.85;94261.69;4952631;29;20030;-40
2020/12/22 09:42:21;;;;;;;24.80;11.57;;;;;;;5.46;68.99;94262.44;4952331;29;20493;-40
2020/12/22 09:44:46;;;;;;;21.30;9.98;;;;;;;5.67;69.87;94260.97;4953905;28;20073;-42
2020/12/22 09:47:12;;;;;;;21.13;8.75;;;;;;;5.90;68.53;94265.97;4966027;28;20090;-40
2020/12/22 09:49:37;;;;;;;21.95;8.40;;;;;;;6.06;67.74;94256.25;4971673;28;20015;-42
2020/12/22 09:52:03;;;;;;;17.52;7.60;;;;;;;6.03;67.87;94255.25;4972264;28;20102;-43
2020/12/22 09:54:28;;;;;;;17.42;8.35;;;;;;;6.33;67.51;94249.97;4971947;28;20102;-42
2020/12/22 09:56:54;;;;;;;15.25;7.43;;;;;;;6.36;66.79;94246.25;4972269;28;20472;-43
2020/12/22 09:59:19;;;;;;;16.10;7.55;;;;;;;6.50;66.14;94258.91;4971769;28;20110;-44
2020/12/22 10:01:46;;;;;;;13.93;6.57;;;;;;;6.44;65.40;94263.66;4971822;28;20026;-41
2020/12/22 10:04:12;;;;;;;14.40;6.97;;;;;;;6.50;65.40;94241.69;4971870;28;20027;-41
2020/12/22 10:06:38;;;;;;;13.68;7.10;;;;;;;6.44;65.01;94265.66;4971801;28;20027;-41
2020/12/22 10:09:03;;;;;;;18.60;6.78;;;;;;;6.17;66.38;94261.72;4971989;28;20472;-41
2020/12/22 10:11:31;;;;;;;14.77;6.43;;;;;;;6.07;66.52;94244.78;4971474;28;20106;-40
2020/12/22 10:13:57;;;;;;;13.73;7.22;;;;;;;6.36;65.91;94261.94;4971596;28;20520;-41
2020/12/22 10:16:22;;;;;;;11.07;6.03;;;;;;;6.31;65.56;94262.69;4971872;28;20115;-40
2020/12/22 10:18:48;;;;;;;16.40;6.93;;;;;;;6.34;65.71;94267.94;4971878;28;20030;-42
2020/12/22 10:21:16;;;;;;;16.63;7.38;;;;;;;6.31;66.96;94259.94;4966092;28;20493;-41
2020/12/22 10:23:42;;;;;;;18.02;7.47;;;;;;;6.25;67.00;94251.00;4952213;29;20066;-40
2020/12/22 10:26:10;;;;;;;14.30;7.13;;;;;;;6.31;66.22;94251.72;4952183;29;20035;-40
2020/12/22 10:28:37;;;;;;;16.17;7.97;;;;;;;6.21;66.14;94254.00;4952213;29;20067;-40
2020/12/22 10:31:04;;;;;;;13.98;7.88;;;;;;;6.29;66.08;94252.22;4951333;29;20075;-42
2020/12/22 10:33:29;;;;;;;19.60;9.77;;;;;;;6.43;66.10;94255.94;4951048;29;20042;-40
2020/12/22 10:35:55;;;;;;;14.73;6.40;;;;;;;6.54;65.26;94253.19;4951193;29;20031;-40
2020/12/22 10:38:21;;;;;;;13.93;7.75;;;;;;;6.62;65.37;94254.16;4950221;29;20468;-40
2020/12/22 10:40:47;;;;;;;13.75;7.07;;;;;;;6.69;64.93;94254.34;4952162;29;20083;-40
2020/12/22 10:43:13;;;;;;;16.25;6.75;;;;;;;6.49;65.53;94242.97;4952134;29;20155;-41
2020/12/22 10:45:38;;;;;;;31.70;19.35;;;;;;;6.36;65.52;94240.75;4951989;29;20480;-42
2020/12/22 10:48:06;;;;;;;13.57;7.57;;;;;;;6.44;65.19;94249.19;4952250;29;20107;-42
2020/12/22 10:50:31;;;;;;;16.98;7.45;;;;;;;6.43;65.75;94242.97;4951793;29;20079;-43
2020/12/22 10:52:57;;;;;;;19.88;9.23;;;;;;;6.46;66.61;94233.75;4951471;29;20015;-45
2020/12/22 10:55:23;;;;;;;14.30;7.40;;;;;;;6.09;66.43;94225.84;4951870;29;20096;-43
2020/12/22 10:57:50;;;;;;;12.73;6.93;;;;;;;6.22;66.76;94224.56;4951111;29;20035;-41
2020/12/22 11:00:16;;;;;;;12.80;7.50;;;;;;;6.21;67.41;94225.81;4950248;29;20027;-42
2020/12/22 11:02:42;;;;;;;14.05;7.03;;;;;;;6.19;67.01;94220.84;4950425;29;20081;-44
2020/12/22 11:05:07;;;;;;;13.00;6.40;;;;;;;6.13;67.63;94217.34;4953611;29;20027;-43
2020/12/22 11:08:06;;;;;;;17.02;7.80;;;;;;;6.44;66.83;94206.06;4954369;29;20035;-42
2020/12/22 11:10:27;;;;;;;17.48;7.85;;;;;;;6.49;67.26;94207.31;4949410;29;20055;-43
2020/12/22 11:12:52;;;;;;;13.10;7.47;;;;;;;6.65;66.72;94204.50;4953220;29;20774;-43
2020/12/22 11:15:18;;;;;;;20.35;10.45;;;;;;;6.89;66.60;94206.63;4954130;29;20035;-42
2020/12/22 11:17:43;;;;;;;18.75;8.85;;;;;;;7.02;66.06;94204.06;4951799;29;20078;-42
2020/12/22 11:20:09;;;;;;;19.77;8.60;;;;;;;7.09;65.98;94202.78;4953821;29;20023;-43
2020/12/22 11:22:34;;;;;;;16.27;7.47;;;;;;;6.93;64.97;94207.09;4954038;29;20038;-43
2020/12/22 11:25:00;;;;;;;14.48;7.25;;;;;;;7.05;64.49;94194.81;4954126;29;20428;-42
2020/12/22 11:27:25;;;;;;;15.40;7.88;;;;;;;7.16;63.96;94196.75;4954439;29;20027;-43
2020/12/22 11:29:51;;;;;;;13.13;6.60;;;;;;;7.28;63.85;94190.69;4954359;29;20618;-42